Time;durP1;ratioP1;P1;durP2;ratioP2;P2;SDS_P1;SDS_P2;PMS_P1;PMS_P2;Temp;Humidity;BMP_temperature;BMP_pressure;BME280_temperature;BME280_humidity;BME280_pressure;Samples;Min_cycle;Max_cycle;Signal;HPM_P1;HPM_P2
2022/04/29 00:02:10;;;;;;;7.07;6.47;;;;;;;;;;5075305;28;20461;-66
2022/04/29 00:04:37;;;;;;;9.00;6.20;;;;;;;;;;5075310;28;20414;-66
2022/04/29 00:07:04;;;;;;;5.93;5.53;;;;;;;;;;5075267;28;20414;-65
2022/04/29 00:09:30;;;;;;;6.37;5.83;;;;;;;;;;5075315;28;20426;-66
2022/04/29 00:11:56;;;;;;;5.37;4.97;;;;;;;;;;5075257;28;20908;-66
2022/04/29 00:14:25;;;;;;;6.17;5.50;;;;;;;;;;5075045;28;20405;-66
2022/04/29 00:16:51;;;;;;;4.73;4.63;;;;;;;;;;5075137;28;20452;-66
2022/04/29 00:19:17;;;;;;;5.13;4.77;;;;;;;;;;5075097;28;20444;-66
2022/04/29 00:21:44;;;;;;;8.00;5.70;;;;;;;;;;5074888;28;20476;-66
2022/04/29 00:24:10;;;;;;;4.50;4.40;;;;;;;;;;5074931;28;20402;-66
2022/04/29 00:26:37;;;;;;;5.47;5.03;;;;;;;;;;5074749;28;20398;-66
2022/04/29 00:29:03;;;;;;;5.37;5.17;;;;;;;;;;5073215;28;20986;-66
2022/04/29 00:31:30;;;;;;;5.17;4.97;;;;;;;;;;5074974;28;20808;-66
2022/04/29 00:33:56;;;;;;;4.83;4.73;;;;;;;;;;5074954;28;20398;-66
2022/04/29 00:36:22;;;;;;;4.93;4.53;;;;;;;;;;5074643;28;20407;-66
2022/04/29 00:38:48;;;;;;;5.10;4.63;;;;;;;;;;5074491;28;20462;-66
2022/04/29 00:41:17;;;;;;;5.00;4.80;;;;;;;;;;5074467;28;20515;-66
2022/04/29 00:43:43;;;;;;;5.00;4.77;;;;;;;;;;5074522;28;20455;-67
2022/04/29 00:46:09;;;;;;;4.70;4.60;;;;;;;;;;5074463;28;20508;-66
2022/04/29 00:48:36;;;;;;;5.93;5.40;;;;;;;;;;5074467;28;20402;-65
2022/04/29 00:51:01;;;;;;;5.10;4.90;;;;;;;;;;5074425;28;20414;-66
2022/04/29 00:53:29;;;;;;;4.90;4.60;;;;;;;;;;5074358;28;20421;-66
2022/04/29 00:55:56;;;;;;;4.60;4.50;;;;;;;;;;5074583;28;20881;-66
2022/04/29 00:58:24;;;;;;;4.60;4.40;;;;;;;;;;5074267;28;20402;-66
2022/04/29 01:00:50;;;;;;;5.60;5.13;;;;;;;;;;5074080;28;20461;-66
2022/04/29 01:03:16;;;;;;;5.07;4.77;;;;;;;;;;5074146;28;20460;-66
2022/04/29 01:05:42;;;;;;;5.30;5.10;;;;;;;;;;5072989;28;20905;-66
2022/04/29 01:08:09;;;;;;;5.17;4.80;;;;;;;;;;5074935;28;20820;-66
2022/04/29 01:10:35;;;;;;;4.60;4.40;;;;;;;;;;5074291;28;20441;-66
2022/04/29 01:13:02;;;;;;;4.30;4.20;;;;;;;;;;5074128;28;20506;-66
2022/04/29 01:15:29;;;;;;;5.30;5.10;;;;;;;;;;5073838;28;20422;-66
2022/04/29 01:18:00;;;;;;;4.60;4.40;;;;;;;;;;5074170;28;20425;-66
2022/04/29 01:20:27;;;;;;;5.23;4.77;;;;;;;;;;5073850;28;20410;-66
2022/04/29 01:22:53;;;;;;;5.00;4.80;;;;;;;;;;5073703;28;20865;-66
2022/04/29 01:25:19;;;;;;;5.53;4.60;;;;;;;;;;5073764;28;20486;-66
2022/04/29 01:27:45;;;;;;;5.53;5.10;;;;;;;;;;5073653;28;20410;-66
2022/04/29 01:30:12;;;;;;;8.63;5.20;;;;;;;;;;5073768;28;20410;-66
2022/04/29 01:32:40;;;;;;;4.93;4.63;;;;;;;;;;5073661;28;20421;-66
2022/04/29 01:35:06;;;;;;;4.83;4.53;;;;;;;;;;5073574;28;20904;-66
2022/04/29 01:37:33;;;;;;;4.90;4.70;;;;;;;;;;5073561;28;20429;-66
2022/04/29 01:39:59;;;;;;;4.37;4.20;;;;;;;;;;5072652;28;20464;-66
2022/04/29 01:42:25;;;;;;;4.63;4.23;;;;;;;;;;5073455;28;20470;-66
2022/04/29 01:44:51;;;;;;;5.30;5.00;;;;;;;;;;5073583;28;20818;-66
2022/04/29 01:47:17;;;;;;;5.03;4.83;;;;;;;;;;5073517;28;20410;-67
2022/04/29 01:49:43;;;;;;;5.00;4.90;;;;;;;;;;5073443;28;20449;-66
2022/04/29 01:52:09;;;;;;;5.47;4.80;;;;;;;;;;5073438;28;20402;-66
2022/04/29 01:54:38;;;;;;;6.60;5.30;;;;;;;;;;5073418;28;20402;-66
2022/04/29 01:57:05;;;;;;;5.77;5.40;;;;;;;;;;5072117;28;20509;-66
2022/04/29 01:59:31;;;;;;;6.00;5.57;;;;;;;;;;5073307;28;20444;-66
2022/04/29 02:01:57;;;;;;;5.30;5.10;;;;;;;;;;5073274;28;20801;-67
2022/04/29 02:04:24;;;;;;;5.30;4.97;;;;;;;;;;5073529;28;20494;-66
2022/04/29 02:06:50;;;;;;;5.40;5.07;;;;;;;;;;5073242;28;20413;-67
2022/04/29 02:09:16;;;;;;;6.93;5.00;;;;;;;;;;5073250;28;20406;-67
2022/04/29 02:12:04;;;;;;;5.30;5.10;;;;;;;;;;5073141;28;20921;-67
2022/04/29 02:14:30;;;;;;;11.27;5.23;;;;;;;;;;5073085;28;20402;-66
2022/04/29 02:16:57;;;;;;;5.77;5.37;;;;;;;;;;5073255;28;20859;-66
2022/04/29 02:19:23;;;;;;;6.10;5.80;;;;;;;;;;5073149;28;20402;-66
2022/04/29 02:21:49;;;;;;;4.97;4.77;;;;;;;;;;5071725;28;20944;-67
2022/04/29 02:24:16;;;;;;;5.07;4.80;;;;;;;;;;5073128;28;20487;-67
2022/04/29 02:26:42;;;;;;;6.60;6.00;;;;;;;;;;5073125;28;20758;-66
2022/04/29 02:29:08;;;;;;;6.07;5.60;;;;;;;;;;5071834;28;20423;-66
2022/04/29 02:31:34;;;;;;;6.10;5.80;;;;;;;;;;5072964;28;20501;-67
2022/04/29 02:34:00;;;;;;;5.37;5.17;;;;;;;;;;5072948;28;20418;-66
2022/04/29 02:36:26;;;;;;;6.03;5.73;;;;;;;;;;5072979;28;20547;-66
2022/04/29 02:38:52;;;;;;;6.83;5.50;;;;;;;;;;5072761;28;20481;-67
2022/04/29 02:41:18;;;;;;;5.33;5.03;;;;;;;;;;5072891;28;20562;-68
2022/04/29 02:43:44;;;;;;;6.10;5.60;;;;;;;;;;5072900;28;20498;-67
2022/04/29 02:46:10;;;;;;;5.20;4.80;;;;;;;;;;5072895;28;20778;-67
2022/04/29 02:48:36;;;;;;;5.73;5.53;;;;;;;;;;5072866;28;20493;-66
2022/04/29 02:51:04;;;;;;;5.77;5.37;;;;;;;;;;5074675;28;20406;-66
2022/04/29 02:53:30;;;;;;;5.63;5.27;;;;;;;;;;5076616;28;20889;-66
2022/04/29 02:55:56;;;;;;;7.33;5.77;;;;;;;;;;5076621;28;20502;-66
2022/04/29 02:58:22;;;;;;;5.70;5.20;;;;;;;;;;5076470;28;20397;-66
2022/04/29 03:00:48;;;;;;;6.43;5.63;;;;;;;;;;5076411;28;20448;-66
2022/04/29 03:03:14;;;;;;;5.93;5.63;;;;;;;;;;5076558;28;20410;-66
2022/04/29 03:05:40;;;;;;;6.10;5.80;;;;;;;;;;5076452;28;20451;-66
2022/04/29 03:08:07;;;;;;;6.07;5.70;;;;;;;;;;5075156;28;20430;-66
2022/04/29 03:10:34;;;;;;;6.40;6.10;;;;;;;;;;5076645;28;20410;-66
2022/04/29 03:13:00;;;;;;;5.70;5.50;;;;;;;;;;5076254;28;20493;-66
2022/04/29 03:15:26;;;;;;;6.13;5.73;;;;;;;;;;5076198;28;20481;-66
2022/04/29 03:20:38;;;;;;;6.53;6.03;;;;;;;;;;5076105;28;20405;-66
2022/04/29 03:23:05;;;;;;;6.30;5.67;;;;;;;;;;5076068;28;20498;-66
2022/04/29 03:25:31;;;;;;;8.40;6.03;;;;;;;;;;5076051;28;20889;-66
2022/04/29 03:27:57;;;;;;;6.33;5.93;;;;;;;;;;5076051;28;20894;-67
2022/04/29 03:30:23;;;;;;;6.00;5.70;;;;;;;;;;5075973;28;20504;-68
2022/04/29 03:32:53;;;;;;;6.83;6.43;;;;;;;;;;5076043;28;20460;-66
2022/04/29 03:35:19;;;;;;;9.87;7.07;;;;;;;;;;5075858;28;20842;-67
2022/04/29 03:37:45;;;;;;;6.40;6.03;;;;;;;;;;5074584;28;20425;-66
2022/04/29 03:40:13;;;;;;;7.87;5.93;;;;;;;;;;5075638;28;20462;-67
2022/04/29 03:42:39;;;;;;;6.50;6.20;;;;;;;;;;5074520;28;20804;-66
2022/04/29 03:45:05;;;;;;;8.50;6.10;;;;;;;;;;5075686;28;20406;-66
2022/04/29 03:47:31;;;;;;;6.97;6.57;;;;;;;;;;5075657;28;20494;-66
2022/04/29 03:49:57;;;;;;;5.93;5.73;;;;;;;;;;5075658;28;20502;-66
2022/04/29 03:52:23;;;;;;;6.40;6.07;;;;;;;;;;5075643;28;20460;-66
2022/04/29 03:54:49;;;;;;;5.90;5.70;;;;;;;;;;5075594;28;20433;-66
2022/04/29 03:57:15;;;;;;;6.17;5.80;;;;;;;;;;5075473;28;20406;-66
2022/04/29 03:59:41;;;;;;;7.43;6.80;;;;;;;;;;5074078;28;20497;-67
2022/04/29 04:02:07;;;;;;;8.23;6.20;;;;;;;;;;5074516;28;20837;-67
2022/04/29 04:04:33;;;;;;;6.00;5.60;;;;;;;;;;5075590;28;20440;-67
2022/04/29 04:07:02;;;;;;;8.33;6.20;;;;;;;;;;5074122;28;20404;-67
2022/04/29 04:09:28;;;;;;;11.40;6.50;;;;;;;;;;5075195;28;20900;-67
2022/04/29 04:11:54;;;;;;;6.07;5.50;;;;;;;;;;5075255;28;20415;-67
2022/04/29 04:14:20;;;;;;;5.40;5.20;;;;;;;;;;5075125;28;20869;-66
2022/04/29 04:16:47;;;;;;;6.10;5.90;;;;;;;;;;5075136;28;20908;-66
2022/04/29 04:19:13;;;;;;;5.93;5.67;;;;;;;;;;5074974;28;20411;-67
2022/04/29 04:21:39;;;;;;;6.50;6.00;;;;;;;;;;5074894;28;20453;-66
2022/04/29 04:24:06;;;;;;;6.80;6.23;;;;;;;;;;5074991;28;20419;-66
2022/04/29 04:26:32;;;;;;;6.90;6.47;;;;;;;;;;5074916;28;20398;-66
2022/04/29 04:28:58;;;;;;;7.33;6.70;;;;;;;;;;5074819;28;20410;-66
2022/04/29 04:31:24;;;;;;;7.20;6.80;;;;;;;;;;5074794;28;20413;-66
2022/04/29 04:33:53;;;;;;;16.07;6.70;;;;;;;;;;5074724;28;20784;-66
2022/04/29 04:36:19;;;;;;;7.40;6.80;;;;;;;;;;5074671;28;20399;-66
2022/04/29 04:38:47;;;;;;;8.13;7.57;;;;;;;;;;5073233;28;20473;-67
2022/04/29 04:41:15;;;;;;;7.70;7.10;;;;;;;;;;5074555;28;20568;-66
2022/04/29 04:43:41;;;;;;;8.67;7.80;;;;;;;;;;5074825;28;20406;-67
2022/04/29 04:46:07;;;;;;;8.67;7.70;;;;;;;;;;5074448;28;20418;-67
2022/04/29 04:48:34;;;;;;;7.87;7.30;;;;;;;;;;5074437;28;20394;-66
2022/04/29 04:51:04;;;;;;;7.80;7.30;;;;;;;;;;5074379;28;20413;-66
2022/04/29 04:53:30;;;;;;;7.93;7.30;;;;;;;;;;5074411;28;20434;-66
2022/04/29 04:55:56;;;;;;;8.07;7.57;;;;;;;;;;5074302;28;20407;-66
2022/04/29 04:58:22;;;;;;;8.67;7.83;;;;;;;;;;5074225;28;20732;-66
2022/04/29 05:00:48;;;;;;;8.37;7.77;;;;;;;;;;5074366;28;20422;-67
2022/04/29 05:03:14;;;;;;;8.40;7.70;;;;;;;;;;5074105;28;20497;-66
2022/04/29 05:05:40;;;;;;;8.50;7.70;;;;;;;;;;5074105;28;20497;-66
2022/04/29 05:08:06;;;;;;;7.73;7.23;;;;;;;;;;5074113;28;20452;-67
2022/04/29 05:10:32;;;;;;;8.67;7.83;;;;;;;;;;5073972;28;20399;-67
2022/04/29 05:12:58;;;;;;;8.93;8.20;;;;;;;;;;5073936;28;20402;-66
2022/04/29 05:15:25;;;;;;;7.90;7.40;;;;;;;;;;5073868;28;20426;-66
2022/04/29 05:17:51;;;;;;;11.57;7.80;;;;;;;;;;5073925;28;20395;-65
2022/04/29 05:20:17;;;;;;;8.77;7.90;;;;;;;;;;5072774;28;20730;-66
2022/04/29 05:22:45;;;;;;;8.20;7.50;;;;;;;;;;5073966;28;20465;-65
2022/04/29 05:25:11;;;;;;;9.37;8.50;;;;;;;;;;5074026;28;20402;-63
2022/04/29 05:27:37;;;;;;;9.03;8.50;;;;;;;;;;5073814;28;20413;-66
2022/04/29 05:30:03;;;;;;;8.90;8.00;;;;;;;;;;5072405;28;20920;-66
2022/04/29 05:32:30;;;;;;;9.67;7.40;;;;;;;;;;5073717;28;20505;-67
2022/04/29 05:34:57;;;;;;;8.33;7.80;;;;;;;;;;5073501;28;20406;-65
2022/04/29 05:37:23;;;;;;;8.57;7.77;;;;;;;;;;5073508;28;20412;-68
2022/04/29 05:42:33;;;;;;;8.03;7.53;;;;;;;;;;5073442;28;21038;-65
2022/04/29 05:45:00;;;;;;;10.30;9.47;;;;;;;;;;5073322;28;20548;-66
2022/04/29 05:47:26;;;;;;;7.00;6.60;;;;;;;;;;5073461;28;20452;-65
2022/04/29 05:49:52;;;;;;;7.83;7.27;;;;;;;;;;5073373;28;20452;-64
2022/04/29 05:52:18;;;;;;;9.23;8.33;;;;;;;;;;5073376;28;20402;-65
2022/04/29 05:54:45;;;;;;;8.03;7.33;;;;;;;;;;5073661;28;20406;-67
2022/04/29 05:57:11;;;;;;;8.33;7.57;;;;;;;;;;5073280;28;20394;-66
2022/04/29 05:59:37;;;;;;;9.47;8.10;;;;;;;;;;5073258;28;20459;-66
2022/04/29 06:02:03;;;;;;;8.93;7.90;;;;;;;;;;5073244;28;20469;-65
2022/04/29 06:04:29;;;;;;;8.90;8.20;;;;;;;;;;5073274;28;20983;-65
2022/04/29 06:06:55;;;;;;;8.67;7.97;;;;;;;;;;5073346;28;20543;-65
2022/04/29 06:09:21;;;;;;;10.00;9.10;;;;;;;;;;5073243;28;20396;-64
2022/04/29 06:11:47;;;;;;;17.67;14.70;;;;;;;;;;5073380;28;20499;-65
2022/04/29 06:14:13;;;;;;;8.93;8.03;;;;;;;;;;5073339;28;20493;-65
2022/04/29 06:16:39;;;;;;;13.33;7.90;;;;;;;;;;5073163;28;20508;-65
2022/04/29 06:19:05;;;;;;;9.83;8.37;;;;;;;;;;5073290;28;20875;-66
2022/04/29 06:21:31;;;;;;;8.73;8.23;;;;;;;;;;5073237;28;20464;-65
2022/04/29 06:23:57;;;;;;;11.03;8.10;;;;;;;;;;5073458;28;20427;-65
2022/04/29 06:26:23;;;;;;;9.30;8.20;;;;;;;;;;5075826;28;20889;-65
2022/04/29 06:28:49;;;;;;;8.40;7.90;;;;;;;;;;5077066;28;20394;-65
2022/04/29 06:31:15;;;;;;;9.87;8.93;;;;;;;;;;5077216;28;20402;-66
2022/04/29 06:33:41;;;;;;;11.93;8.90;;;;;;;;;;5077177;28;20482;-66
2022/04/29 06:36:08;;;;;;;17.80;9.23;;;;;;;;;;5077423;28;20398;-66
2022/04/29 06:38:34;;;;;;;9.67;8.87;;;;;;;;;;5077053;28;20461;-66
2022/04/29 06:41:00;;;;;;;9.77;8.80;;;;;;;;;;5076876;28;20410;-66
2022/04/29 06:43:28;;;;;;;11.07;10.00;;;;;;;;;;5077041;28;20505;-66
2022/04/29 06:45:54;;;;;;;10.13;9.23;;;;;;;;;;5076906;28;20406;-66
2022/04/29 06:48:20;;;;;;;10.17;9.37;;;;;;;;;;5075601;28;20444;-66
2022/04/29 06:50:46;;;;;;;10.47;9.57;;;;;;;;;;5076787;28;20406;-66
2022/04/29 06:53:12;;;;;;;10.63;9.73;;;;;;;;;;5075360;28;20536;-66
2022/04/29 06:55:38;;;;;;;10.17;9.37;;;;;;;;;;5076771;28;20402;-66
2022/04/29 06:58:04;;;;;;;11.30;9.80;;;;;;;;;;5076747;28;20418;-65
2022/04/29 07:00:30;;;;;;;14.57;9.97;;;;;;;;;;5076647;28;20418;-66
2022/04/29 07:02:56;;;;;;;13.53;9.93;;;;;;;;;;5076760;28;20480;-65
2022/04/29 07:05:23;;;;;;;9.70;8.90;;;;;;;;;;5076610;28;20456;-67
2022/04/29 07:07:49;;;;;;;9.77;8.97;;;;;;;;;;5076537;28;20539;-67
2022/04/29 07:10:16;;;;;;;10.20;9.20;;;;;;;;;;5076506;28;20497;-67
2022/04/29 07:12:43;;;;;;;9.13;8.30;;;;;;;;;;5076372;28;20405;-67
2022/04/29 07:15:09;;;;;;;7.93;7.53;;;;;;;;;;5076436;28;20497;-67
2022/04/29 07:17:35;;;;;;;8.33;7.73;;;;;;;;;;5076288;28;20450;-67
2022/04/29 07:20:01;;;;;;;9.47;8.50;;;;;;;;;;5075279;28;20927;-65
2022/04/29 07:22:28;;;;;;;8.73;8.23;;;;;;;;;;5074789;28;20481;-66
2022/04/29 07:24:54;;;;;;;10.23;8.33;;;;;;;;;;5074833;28;20421;-66
2022/04/29 07:27:20;;;;;;;10.90;8.63;;;;;;;;;;5076113;28;20414;-65
2022/04/29 07:29:47;;;;;;;8.33;7.90;;;;;;;;;;5075980;28;20760;-66
2022/04/29 07:32:12;;;;;;;7.60;7.10;;;;;;;;;;5076136;28;20457;-67
2022/04/29 07:42:54;;;;;;;7.93;7.50;;;;;;;;;;5075800;28;20537;-66
2022/04/29 07:45:20;;;;;;;8.07;7.57;;;;;;;;;;5075746;28;20441;-66
2022/04/29 07:47:46;;;;;;;8.10;7.50;;;;;;;;;;5075781;28;20410;-66
2022/04/29 07:50:13;;;;;;;8.13;7.67;;;;;;;;;;5075740;28;20414;-66
2022/04/29 07:52:39;;;;;;;7.93;7.30;;;;;;;;;;5075926;28;20410;-66
2022/04/29 07:55:05;;;;;;;7.40;7.00;;;;;;;;;;5075561;28;20420;-67
2022/04/29 07:57:31;;;;;;;7.77;7.27;;;;;;;;;;5075611;28;20888;-66
2022/04/29 07:59:57;;;;;;;8.73;8.03;;;;;;;;;;5075803;28;20748;-66
2022/04/29 08:02:23;;;;;;;7.20;6.70;;;;;;;;;;5075510;28;20548;-66
2022/04/29 08:04:49;;;;;;;7.47;6.97;;;;;;;;;;5075476;28;20398;-67
2022/04/29 08:07:15;;;;;;;7.77;7.27;;;;;;;;;;5075438;28;20406;-66
2022/04/29 08:09:41;;;;;;;7.23;6.63;;;;;;;;;;5075349;28;20441;-66
2022/04/29 08:12:10;;;;;;;8.77;8.00;;;;;;;;;;5075362;28;20434;-66
2022/04/29 08:14:36;;;;;;;7.90;7.20;;;;;;;;;;5075284;28;20909;-66
2022/04/29 08:17:01;;;;;;;8.10;7.60;;;;;;;;;;5073956;28;20430;-66
2022/04/29 08:19:28;;;;;;;8.10;7.60;;;;;;;;;;5075207;28;20424;-66
2022/04/29 08:21:54;;;;;;;9.77;8.03;;;;;;;;;;5075025;28;20466;-65
2022/04/29 08:24:20;;;;;;;8.40;7.70;;;;;;;;;;5075048;28;20455;-66
2022/04/29 08:26:46;;;;;;;8.70;7.97;;;;;;;;;;5075132;28;20417;-66
2022/04/29 08:29:12;;;;;;;8.00;7.20;;;;;;;;;;5074964;28;20404;-65
2022/04/29 08:31:38;;;;;;;7.83;7.30;;;;;;;;;;5074790;28;20561;-67
2022/04/29 08:34:04;;;;;;;7.73;7.10;;;;;;;;;;5074957;28;20406;-65
2022/04/29 08:36:30;;;;;;;7.70;7.30;;;;;;;;;;5075077;28;20418;-67
2022/04/29 08:38:57;;;;;;;7.00;6.60;;;;;;;;;;5074653;28;20462;-66
2022/04/29 08:41:23;;;;;;;5.70;5.40;;;;;;;;;;5074662;28;20458;-66
2022/04/29 08:43:49;;;;;;;7.70;7.07;;;;;;;;;;5074848;28;20434;-67
2022/04/29 08:46:16;;;;;;;14.43;7.60;;;;;;;;;;5074878;28;20517;-67
2022/04/29 08:48:43;;;;;;;7.27;6.80;;;;;;;;;;5074299;28;20578;-67
2022/04/29 08:51:09;;;;;;;14.70;6.80;;;;;;;;;;5074483;28;20443;-67
2022/04/29 08:53:36;;;;;;;7.87;7.00;;;;;;;;;;5074382;28;20440;-67
2022/04/29 08:58:47;;;;;;;10.00;7.50;;;;;;;;;;5074581;28;20400;-68
2022/04/29 09:01:15;;;;;;;10.70;8.17;;;;;;;;;;5074185;28;20460;-67
2022/04/29 09:03:42;;;;;;;9.47;8.50;;;;;;;;;;5074346;28;20928;-66
2022/04/29 09:06:08;;;;;;;8.87;8.27;;;;;;;;;;5074237;28;20454;-67
2022/04/29 09:08:44;;;;;;;10.53;8.50;;;;;;;;;;5074496;28;20425;-66
2022/04/29 09:11:11;;;;;;;16.27;10.70;;;;;;;;;;5074320;28;20405;-67
2022/04/29 09:13:38;;;;;;;8.97;8.17;;;;;;;;;;5074318;28;20566;-66
2022/04/29 09:16:04;;;;;;;9.40;8.33;;;;;;;;;;5074129;28;20420;-67
2022/04/29 09:18:32;;;;;;;9.33;8.50;;;;;;;;;;5073996;28;20500;-66
2022/04/29 09:20:58;;;;;;;9.80;8.83;;;;;;;;;;5073969;28;20849;-67
2022/04/29 09:23:30;;;;;;;10.30;8.70;;;;;;;;;;5074176;28;20442;-66
2022/04/29 09:25:59;;;;;;;12.10;8.87;;;;;;;;;;5073494;28;20400;-65
2022/04/29 09:28:25;;;;;;;10.50;9.60;;;;;;;;;;5073333;28;20405;-65
2022/04/29 09:30:55;;;;;;;11.03;9.97;;;;;;;;;;5073245;28;20411;-65
2022/04/29 09:33:21;;;;;;;9.97;9.07;;;;;;;;;;5073742;28;20486;-65
2022/04/29 09:35:49;;;;;;;21.83;10.20;;;;;;;;;;5073932;28;20764;-65
2022/04/29 09:41:00;;;;;;;11.13;9.70;;;;;;;;;;5073493;28;20833;-65
2022/04/29 09:43:36;;;;;;;9.40;8.47;;;;;;;;;;5073742;28;20517;-66
2022/04/29 09:46:12;;;;;;;10.70;8.83;;;;;;;;;;5073584;28;20429;-64
2022/04/29 09:48:59;;;;;;;10.60;8.73;;;;;;;;;;5073117;28;20497;-64
2022/04/29 09:51:43;;;;;;;11.00;9.93;;;;;;;;;;5073334;28;20998;-65
2022/04/29 09:54:12;;;;;;;10.40;9.30;;;;;;;;;;5073400;28;20419;-65
2022/04/29 09:56:39;;;;;;;9.63;8.77;;;;;;;;;;5073475;28;20550;-68
2022/04/29 09:59:06;;;;;;;8.77;7.90;;;;;;;;;;5072075;28;20452;-65
2022/04/29 10:01:32;;;;;;;9.67;8.00;;;;;;;;;;5072595;28;20527;-67
2022/04/29 10:04:00;;;;;;;9.43;8.53;;;;;;;;;;5073341;28;20404;-70
2022/04/29 10:06:27;;;;;;;12.60;8.80;;;;;;;;;;5073348;28;20455;-69
2022/04/29 10:08:53;;;;;;;8.37;7.60;;;;;;;;;;5073314;28;20406;-69
2022/04/29 10:11:23;;;;;;;7.17;6.67;;;;;;;;;;5073185;28;20408;-68
2022/04/29 10:13:50;;;;;;;7.97;7.30;;;;;;;;;;5073127;28;20774;-69
2022/04/29 10:16:18;;;;;;;8.27;7.50;;;;;;;;;;5073140;28;20422;-68
2022/04/29 10:21:37;;;;;;;14.80;6.93;;;;;;;;;;5073085;28;20459;-69
2022/04/29 10:24:03;;;;;;;7.90;5.00;;;;;;;;;;5071892;28;20433;-69
2022/04/29 10:26:30;;;;;;;6.73;6.23;;;;;;;;;;5073171;28;20799;-67
2022/04/29 10:28:57;;;;;;;6.53;6.13;;;;;;;;;;5071866;28;20412;-69
2022/04/29 10:31:23;;;;;;;6.70;6.03;;;;;;;;;;5073058;28;20470;-68
2022/04/29 10:33:50;;;;;;;9.23;5.60;;;;;;;;;;5072956;28;20419;-68
2022/04/29 10:36:17;;;;;;;5.27;4.93;;;;;;;;;;5073021;28;20824;-68
2022/04/29 10:38:46;;;;;;;6.47;5.10;;;;;;;;;;5072959;28;20459;-69
2022/04/29 10:41:19;;;;;;;5.20;4.70;;;;;;;;;;5072852;28;20467;-68
2022/04/29 10:43:46;;;;;;;5.27;4.87;;;;;;;;;;5072884;28;20446;-68
2022/04/29 10:46:15;;;;;;;4.50;4.40;;;;;;;;;;5072939;28;20473;-65
2022/04/29 10:48:41;;;;;;;4.53;4.43;;;;;;;;;;5072810;28;20400;-67
2022/04/29 10:51:16;;;;;;;5.27;4.97;;;;;;;;;;5072905;28;20403;-66
2022/04/29 10:53:43;;;;;;;7.40;5.00;;;;;;;;;;5072903;28;20405;-67
2022/04/29 10:56:28;;;;;;;5.00;4.80;;;;;;;;;;5071608;28;20789;-67
2022/04/29 10:59:15;;;;;;;5.40;5.10;;;;;;;;;;5072813;28;20469;-66
2022/04/29 11:02:13;;;;;;;6.60;5.40;;;;;;;;;;5072549;28;20480;-65
2022/04/29 11:04:39;;;;;;;4.80;4.57;;;;;;;;;;5072451;28;20434;-66
2022/04/29 11:07:05;;;;;;;6.27;5.87;;;;;;;;;;5072802;28;20410;-68
2022/04/29 11:09:35;;;;;;;5.47;5.27;;;;;;;;;;5072672;28;20450;-67
2022/04/29 11:12:02;;;;;;;5.93;5.53;;;;;;;;;;5073241;28;20429;-67
2022/04/29 11:14:29;;;;;;;12.57;5.77;;;;;;;;;;5076301;28;20426;-67
2022/04/29 11:16:56;;;;;;;5.77;5.57;;;;;;;;;;5076355;28;20782;-68
2022/04/29 11:19:26;;;;;;;5.43;5.23;;;;;;;;;;5076130;28;20397;-67
2022/04/29 11:24:44;;;;;;;5.60;4.90;;;;;;;;;;5076122;28;20417;-68
2022/04/29 11:27:11;;;;;;;5.30;5.00;;;;;;;;;;5076035;28;20870;-65
2022/04/29 11:29:46;;;;;;;5.90;5.50;;;;;;;;;;5076041;28;20401;-67
2022/04/29 11:32:13;;;;;;;4.97;4.60;;;;;;;;;;5075973;28;20406;-66
2022/04/29 11:34:55;;;;;;;6.10;5.70;;;;;;;;;;5074580;28;20427;-66
2022/04/29 11:37:29;;;;;;;5.90;5.50;;;;;;;;;;5075865;28;20411;-66
2022/04/29 11:39:56;;;;;;;5.30;5.00;;;;;;;;;;5075654;28;20498;-66
2022/04/29 11:42:22;;;;;;;5.83;5.30;;;;;;;;;;5075703;28;20975;-67
2022/04/29 11:44:51;;;;;;;5.13;4.83;;;;;;;;;;5075736;28;20406;-66
2022/04/29 11:47:22;;;;;;;5.63;5.13;;;;;;;;;;5075766;28;20402;-72
2022/04/29 11:49:49;;;;;;;4.23;4.07;;;;;;;;;;5075658;28;20442;-66
2022/04/29 11:52:18;;;;;;;4.43;4.20;;;;;;;;;;5075664;28;20416;-65
2022/04/29 11:54:53;;;;;;;4.90;4.60;;;;;;;;;;5075784;28;20459;-66
2022/04/29 11:57:20;;;;;;;5.77;3.57;;;;;;;;;;5075494;28;20410;-66
2022/04/29 11:59:46;;;;;;;4.27;3.97;;;;;;;;;;5075672;28;20888;-66
2022/04/29 12:02:17;;;;;;;4.30;4.20;;;;;;;;;;5075448;28;20474;-66
2022/04/29 12:04:55;;;;;;;4.00;4.00;;;;;;;;;;5075478;28;20407;-67
2022/04/29 12:07:22;;;;;;;4.10;3.80;;;;;;;;;;5075648;28;20505;-66
2022/04/29 12:09:48;;;;;;;4.60;4.20;;;;;;;;;;5075295;28;20875;-67
2022/04/29 12:12:23;;;;;;;6.30;4.90;;;;;;;;;;5075284;28;20399;-65
2022/04/29 12:14:49;;;;;;;4.90;4.27;;;;;;;;;;5075245;28;20410;-65
2022/04/29 12:17:19;;;;;;;4.37;4.17;;;;;;;;;;5075317;28;20405;-66
2022/04/29 12:19:48;;;;;;;4.80;4.40;;;;;;;;;;5075146;28;20391;-66
2022/04/29 12:22:27;;;;;;;5.10;4.70;;;;;;;;;;5075373;28;20834;-66
2022/04/29 12:24:53;;;;;;;4.30;3.87;;;;;;;;;;5074907;28;20387;-65
2022/04/29 12:27:27;;;;;;;4.20;3.90;;;;;;;;;;5075110;28;20426;-66
2022/04/29 12:35:30;;;;;;;3.73;3.43;;;;;;;;;;5075013;28;20404;-66
2022/04/29 12:37:56;;;;;;;4.73;4.27;;;;;;;;;;5074778;28;20404;-66
2022/04/29 12:40:31;;;;;;;4.80;4.43;;;;;;;;;;5074640;28;20454;-66
2022/04/29 12:43:10;;;;;;;7.67;4.90;;;;;;;;;;5074578;28;20559;-65
2022/04/29 12:45:36;;;;;;;4.80;4.37;;;;;;;;;;5074725;28;20779;-67
2022/04/29 12:48:04;;;;;;;8.77;4.80;;;;;;;;;;5074709;28;20414;-67
2022/04/29 12:50:37;;;;;;;4.57;4.37;;;;;;;;;;5074685;28;20415;-66
2022/04/29 12:53:04;;;;;;;4.03;3.93;;;;;;;;;;5074771;28;20769;-66
2022/04/29 12:55:37;;;;;;;4.70;4.40;;;;;;;;;;5074649;28;20486;-65
2022/04/29 12:58:05;;;;;;;4.77;4.57;;;;;;;;;;5074400;28;20404;-66
2022/04/29 13:00:31;;;;;;;5.03;4.70;;;;;;;;;;5074574;28;20494;-65
2022/04/29 13:03:10;;;;;;;5.07;4.57;;;;;;;;;;5074388;28;20537;-66
2022/04/29 13:05:37;;;;;;;5.73;4.30;;;;;;;;;;5073096;28;20504;-66
2022/04/29 13:08:04;;;;;;;5.10;4.90;;;;;;;;;;5073016;28;20756;-66
2022/04/29 13:10:30;;;;;;;4.90;4.60;;;;;;;;;;5074200;28;20416;-66
2022/04/29 13:12:56;;;;;;;4.83;4.70;;;;;;;;;;5074135;28;20415;-67
2022/04/29 13:15:22;;;;;;;5.00;4.80;;;;;;;;;;5074034;28;20417;-66
2022/04/29 13:17:48;;;;;;;6.53;4.97;;;;;;;;;;5074061;28;20498;-67
2022/04/29 13:20:15;;;;;;;4.10;4.00;;;;;;;;;;5074015;28;20926;-67
2022/04/29 13:22:42;;;;;;;4.10;3.90;;;;;;;;;;5073914;28;20468;-67
2022/04/29 13:25:08;;;;;;;4.20;3.90;;;;;;;;;;5073927;28;20439;-66
2022/04/29 13:27:35;;;;;;;4.23;3.67;;;;;;;;;;5074195;28;20407;-65
2022/04/29 13:30:01;;;;;;;5.07;4.37;;;;;;;;;;5073868;28;20400;-65
2022/04/29 13:32:27;;;;;;;4.73;4.33;;;;;;;;;;5073907;28;20909;-65
2022/04/29 13:34:53;;;;;;;5.10;4.10;;;;;;;;;;5072811;28;20403;-65
2022/04/29 13:37:21;;;;;;;4.23;3.93;;;;;;;;;;5073872;28;20407;-66
2022/04/29 13:39:47;;;;;;;4.00;3.70;;;;;;;;;;5072256;28;20475;-65
2022/04/29 13:42:13;;;;;;;4.03;3.80;;;;;;;;;;5073711;28;20465;-66
2022/04/29 13:44:40;;;;;;;4.20;3.80;;;;;;;;;;5073959;28;20404;-66
2022/04/29 13:47:06;;;;;;;3.77;3.67;;;;;;;;;;5073599;28;20919;-65
2022/04/29 13:49:32;;;;;;;3.90;3.80;;;;;;;;;;5073568;28;20394;-65
2022/04/29 13:53:07;;;;;;;3.67;3.47;;;;;;;;;;5072287;28;20433;-65
2022/04/29 13:54:44;;;;;;;4.03;3.83;;;;;;;;;;5073434;28;20423;-65
2022/04/29 13:57:10;;;;;;;4.03;3.73;;;;;;;;;;5073497;28;20410;-66
2022/04/29 13:59:36;;;;;;;3.80;3.60;;;;;;;;;;5073833;28;20412;-66
2022/04/29 14:02:02;;;;;;;4.40;4.20;;;;;;;;;;5073449;28;20474;-66
2022/04/29 14:04:28;;;;;;;3.37;3.17;;;;;;;;;;5073452;28;20399;-65
2022/04/29 14:06:54;;;;;;;7.03;3.50;;;;;;;;;;5073453;28;20408;-65
2022/04/29 14:09:20;;;;;;;4.23;3.97;;;;;;;;;;5073425;28;20401;-65
2022/04/29 14:11:47;;;;;;;3.70;3.60;;;;;;;;;;5073399;28;20495;-66
2022/04/29 14:14:13;;;;;;;3.90;3.80;;;;;;;;;;5073342;28;20761;-66
2022/04/29 14:16:39;;;;;;;4.03;3.93;;;;;;;;;;5073676;28;20450;-66
2022/04/29 14:19:05;;;;;;;3.70;3.60;;;;;;;;;;5073516;28;20405;-65
2022/04/29 14:21:31;;;;;;;3.73;3.73;;;;;;;;;;5073102;28;20456;-65
2022/04/29 14:23:57;;;;;;;4.30;4.00;;;;;;;;;;5071891;28;20428;-65
2022/04/29 14:26:23;;;;;;;4.20;4.07;;;;;;;;;;5073269;28;20410;-65
2022/04/29 14:28:49;;;;;;;3.70;3.60;;;;;;;;;;5073255;28;20926;-66
2022/04/29 14:31:16;;;;;;;3.33;3.23;;;;;;;;;;5073225;28;20844;-65
2022/04/29 14:33:43;;;;;;;3.43;3.23;;;;;;;;;;5073174;28;20417;-66
2022/04/29 14:36:09;;;;;;;4.10;3.90;;;;;;;;;;5073177;28;20430;-66
2022/04/29 14:38:35;;;;;;;4.30;3.90;;;;;;;;;;5073123;28;20419;-65
2022/04/29 14:41:01;;;;;;;3.77;3.67;;;;;;;;;;5073070;28;20410;-65
2022/04/29 14:43:27;;;;;;;4.00;3.90;;;;;;;;;;5073306;28;20417;-65
2022/04/29 14:45:53;;;;;;;3.47;3.37;;;;;;;;;;5073096;28;20423;-65
2022/04/29 14:48:19;;;;;;;3.87;3.77;;;;;;;;;;5076845;28;20408;-66
2022/04/29 14:50:46;;;;;;;8.00;4.13;;;;;;;;;;5076006;28;20927;-67
2022/04/29 14:53:12;;;;;;;4.30;4.20;;;;;;;;;;5077039;28;20506;-65
2022/04/29 14:55:38;;;;;;;4.03;3.83;;;;;;;;;;5076742;28;20501;-66
2022/04/29 14:58:04;;;;;;;4.03;3.63;;;;;;;;;;5076637;28;20439;-66
2022/04/29 15:00:29;;;;;;;6.77;3.50;;;;;;;;;;5076597;28;20427;-65
2022/04/29 15:02:56;;;;;;;4.47;4.07;;;;;;;;;;5076546;28;20470;-66
2022/04/29 15:05:22;;;;;;;4.30;4.20;;;;;;;;;;5076826;28;20402;-66
2022/04/29 15:07:48;;;;;;;4.00;3.70;;;;;;;;;;5076760;28;20404;-66
2022/04/29 15:15:45;;;;;;;3.67;3.50;;;;;;;;;;5076246;28;20406;-66
2022/04/29 15:18:12;;;;;;;4.10;3.43;;;;;;;;;;5076298;28;20395;-65